createdAt,value
2022-12-31T00:00:08.093Z,100257.00
2022-12-31T00:02:34.999Z,100258.00
2022-12-31T00:05:02.138Z,100262.00
2022-12-31T00:07:28.786Z,100251.00
2022-12-31T00:09:55.469Z,100240.00
2022-12-31T00:12:22.083Z,100234.00
2022-12-31T00:14:48.689Z,100233.00
2022-12-31T00:17:15.342Z,100243.00
2022-12-31T00:19:41.959Z,100237.00
2022-12-31T00:22:08.668Z,100246.00
2022-12-31T00:24:36.022Z,100274.00
2022-12-31T00:27:02.706Z,100281.00
2022-12-31T00:29:29.309Z,100270.00
2022-12-31T00:31:56.051Z,100248.00
2022-12-31T00:34:22.854Z,100239.00
2022-12-31T00:36:49.442Z,100235.00
2022-12-31T00:39:16.149Z,100239.00
2022-12-31T00:41:44.152Z,100232.00
2022-12-31T00:44:14.396Z,100231.00
2022-12-31T00:49:07.154Z,100211.00
2022-12-31T00:51:33.849Z,100210.00
2022-12-31T00:54:00.499Z,100212.00
2022-12-31T00:56:29.451Z,100212.00
2022-12-31T00:58:56.517Z,100209.00
2022-12-31T01:01:29.756Z,100208.00
2022-12-31T01:04:01.156Z,100213.00
2022-12-31T01:06:27.868Z,100213.00
2022-12-31T01:08:55.797Z,100214.00
2022-12-31T01:11:23.661Z,100211.00
2022-12-31T01:13:56.761Z,100213.00
2022-12-31T01:16:29.045Z,100225.00
2022-12-31T01:18:58.132Z,100224.00
2022-12-31T01:21:24.824Z,100225.00
2022-12-31T01:23:51.445Z,100221.00
2022-12-31T01:26:19.169Z,100221.00
2022-12-31T01:28:46.506Z,100226.00
2022-12-31T01:31:16.941Z,100221.00
2022-12-31T01:33:43.962Z,100228.00
2022-12-31T01:36:25.613Z,100236.00
2022-12-31T01:38:54.342Z,100240.00
2022-12-31T01:41:28.769Z,100239.00
2022-12-31T01:44:00.765Z,100257.00
2022-12-31T01:46:43.868Z,100233.00
2022-12-31T01:49:25.209Z,100242.00
2022-12-31T01:52:07.520Z,100245.00
2022-12-31T01:54:41.668Z,100241.00
2022-12-31T01:57:17.253Z,100235.00
2022-12-31T01:59:45.599Z,100229.00
2022-12-31T02:02:14.617Z,100221.00
2022-12-31T02:04:41.388Z,100224.00
2022-12-31T02:07:09.619Z,100224.00
2022-12-31T02:09:38.956Z,100224.00
2022-12-31T02:12:06.572Z,100230.00
2022-12-31T02:14:37.614Z,100227.00
2022-12-31T02:17:31.810Z,100226.00
2022-12-31T02:20:35.604Z,100229.00
2022-12-31T02:23:24.233Z,100229.00
2022-12-31T02:25:54.039Z,100236.00
2022-12-31T02:28:32.735Z,100228.00
2022-12-31T02:31:16.839Z,100217.00
2022-12-31T02:33:54.817Z,100231.00
2022-12-31T02:36:27.870Z,100227.00
2022-12-31T02:38:55.471Z,100234.00
2022-12-31T02:41:40.937Z,100241.00
2022-12-31T02:44:30.197Z,100233.00
2022-12-31T02:47:08.780Z,100223.00
2022-12-31T02:49:54.987Z,100235.00
2022-12-31T02:52:38.794Z,100235.00
2022-12-31T02:55:14.633Z,100237.00
2022-12-31T02:58:05.915Z,100238.00
2022-12-31T03:00:53.765Z,100246.00
2022-12-31T03:03:21.451Z,100249.00
2022-12-31T03:05:49.214Z,100238.00
2022-12-31T03:08:23.185Z,100242.00
2022-12-31T03:10:50.233Z,100239.00
2022-12-31T03:13:16.896Z,100234.00
2022-12-31T03:15:43.709Z,100229.00
2022-12-31T03:18:18.319Z,100240.00
2022-12-31T03:21:09.168Z,100245.00
2022-12-31T03:23:42.467Z,100238.00
2022-12-31T03:26:12.075Z,100230.00
2022-12-31T03:28:48.000Z,100222.00
2022-12-31T03:31:16.314Z,100238.00
2022-12-31T03:33:43.113Z,100223.00
2022-12-31T03:36:13.529Z,100214.00
2022-12-31T03:38:41.012Z,100207.00
2022-12-31T03:41:10.533Z,100212.00
2022-12-31T03:43:37.142Z,100216.00
2022-12-31T03:46:03.838Z,100217.00
2022-12-31T03:48:30.620Z,100212.00
2022-12-31T03:50:57.266Z,100218.00
2022-12-31T03:53:23.874Z,100211.00
2022-12-31T03:55:54.736Z,100210.00
2022-12-31T03:58:22.099Z,100213.00
2022-12-31T04:00:49.372Z,100206.00
2022-12-31T04:03:16.182Z,100205.00
2022-12-31T04:05:42.950Z,100213.00
2022-12-31T04:08:09.638Z,100209.00
2022-12-31T04:10:36.218Z,100206.00
2022-12-31T04:13:04.876Z,100198.00
2022-12-31T04:15:31.707Z,100193.00
2022-12-31T04:17:58.361Z,100209.00
2022-12-31T04:20:25.088Z,100205.00
2022-12-31T04:22:51.672Z,100204.00
2022-12-31T04:25:18.432Z,100195.00
2022-12-31T04:27:45.064Z,100191.00
2022-12-31T04:30:13.296Z,100190.00
2022-12-31T04:32:40.020Z,100192.00
2022-12-31T04:35:07.555Z,100212.00
2022-12-31T04:37:34.171Z,100214.00
2022-12-31T04:40:05.918Z,100208.00
2022-12-31T04:42:33.187Z,100202.00
2022-12-31T04:44:59.795Z,100217.00
2022-12-31T04:47:26.496Z,100222.00
2022-12-31T04:49:53.117Z,100226.00
2022-12-31T04:52:19.783Z,100226.00
2022-12-31T04:54:46.454Z,100222.00
2022-12-31T04:57:13.140Z,100218.00
2022-12-31T04:59:39.953Z,100224.00
2022-12-31T05:02:06.953Z,100226.00
2022-12-31T05:04:33.687Z,100235.00
2022-12-31T05:07:00.314Z,100252.00
2022-12-31T05:09:28.434Z,100247.00
2022-12-31T05:11:55.358Z,100254.00
2022-12-31T05:14:22.014Z,100253.00
2022-12-31T05:16:48.726Z,100245.00
2022-12-31T05:19:15.519Z,100248.00
2022-12-31T05:21:42.268Z,100235.00
2022-12-31T05:24:08.994Z,100244.00
2022-12-31T05:26:35.665Z,100249.00
2022-12-31T05:29:02.315Z,100262.00
2022-12-31T05:31:28.991Z,100254.00
2022-12-31T05:33:55.644Z,100259.00
2022-12-31T05:36:22.254Z,100254.00
2022-12-31T05:38:48.946Z,100257.00
2022-12-31T05:41:15.685Z,100261.00
2022-12-31T05:43:42.340Z,100254.00
2022-12-31T05:46:09.100Z,100263.00
2022-12-31T05:48:35.812Z,100258.00
2022-12-31T05:51:02.509Z,100256.00
2022-12-31T05:53:29.839Z,100263.00
2022-12-31T05:55:56.451Z,100286.00
2022-12-31T05:58:23.096Z,100294.00
2022-12-31T06:00:51.048Z,100270.00
2022-12-31T06:03:17.827Z,100273.00
2022-12-31T06:05:44.494Z,100282.00
2022-12-31T06:08:12.237Z,100276.00
2022-12-31T06:10:39.881Z,100276.00
2022-12-31T06:13:06.989Z,100287.00
2022-12-31T06:15:33.763Z,100279.00
2022-12-31T06:18:00.419Z,100288.00
2022-12-31T06:20:27.066Z,100297.00
2022-12-31T06:22:53.640Z,100308.00
2022-12-31T06:25:20.288Z,100281.00
2022-12-31T06:27:46.925Z,100296.00
2022-12-31T06:30:13.935Z,100294.00
2022-12-31T06:32:40.815Z,100285.00
2022-12-31T06:35:07.924Z,100315.00
2022-12-31T06:37:35.765Z,100286.00
2022-12-31T06:40:02.488Z,100281.00
2022-12-31T06:42:30.996Z,100271.00
2022-12-31T06:45:00.640Z,100272.00
2022-12-31T06:47:27.273Z,100286.00
2022-12-31T06:49:53.889Z,100271.00
2022-12-31T06:52:21.207Z,100297.00
2022-12-31T06:54:48.323Z,100333.00
2022-12-31T06:57:15.507Z,100306.00
2022-12-31T06:59:43.229Z,100321.00
2022-12-31T07:02:46.703Z,100317.00
2022-12-31T07:05:30.364Z,100325.00
2022-12-31T07:08:35.375Z,100316.00
2022-12-31T07:11:23.465Z,100318.00
2022-12-31T07:13:56.108Z,100312.00
2022-12-31T07:16:48.724Z,100306.00
2022-12-31T07:19:41.073Z,100317.00
2022-12-31T07:22:15.088Z,100332.00
2022-12-31T07:24:45.500Z,100344.00
2022-12-31T07:27:39.688Z,100339.00
2022-12-31T07:30:28.655Z,100339.00
2022-12-31T07:33:01.062Z,100350.00
2022-12-31T07:35:40.469Z,100355.00
2022-12-31T07:38:38.065Z,100367.00
2022-12-31T07:41:17.235Z,100370.00
2022-12-31T07:44:10.123Z,100363.00
2022-12-31T07:46:57.808Z,100360.00
2022-12-31T07:49:25.675Z,100360.00
2022-12-31T07:51:53.165Z,100355.00
2022-12-31T07:54:20.436Z,100354.00
2022-12-31T07:56:47.502Z,100355.00
2022-12-31T07:59:24.618Z,100367.00
2022-12-31T08:02:03.882Z,100377.00
2022-12-31T08:04:37.769Z,100365.00
2022-12-31T08:07:41.913Z,100367.00
2022-12-31T08:10:23.747Z,100359.00
2022-12-31T08:12:50.643Z,100375.00
2022-12-31T08:15:19.321Z,100384.00
2022-12-31T08:17:46.330Z,100395.00
2022-12-31T08:20:15.154Z,100395.00
2022-12-31T08:22:56.918Z,100409.00
2022-12-31T08:25:27.237Z,100403.00
2022-12-31T08:28:05.930Z,100417.00
2022-12-31T08:31:00.477Z,100417.00
2022-12-31T08:33:37.551Z,100433.00
2022-12-31T08:36:31.817Z,100405.00
2022-12-31T08:39:07.373Z,100418.00
2022-12-31T08:41:47.052Z,100415.00
2022-12-31T08:44:26.968Z,100425.00
2022-12-31T08:47:02.855Z,100437.00
2022-12-31T08:49:32.106Z,100436.00
2022-12-31T08:52:00.287Z,100437.00
2022-12-31T08:54:27.323Z,100430.00
2022-12-31T08:57:15.729Z,100444.00
2022-12-31T09:00:06.908Z,100450.00
2022-12-31T09:02:52.221Z,100455.00
2022-12-31T09:05:32.324Z,100456.00
2022-12-31T09:08:08.521Z,100452.00
2022-12-31T09:10:45.323Z,100446.00
2022-12-31T09:13:30.655Z,100437.00
2022-12-31T09:16:18.637Z,100435.00
2022-12-31T09:18:45.453Z,100447.00
2022-12-31T09:21:16.257Z,100473.00
2022-12-31T09:23:43.377Z,100475.00
2022-12-31T09:26:41.907Z,100482.00
2022-12-31T09:29:29.924Z,100481.00
2022-12-31T09:32:12.684Z,100482.00
2022-12-31T09:34:54.524Z,100490.00
2022-12-31T09:37:36.727Z,100475.00
2022-12-31T09:40:52.827Z,100486.00
2022-12-31T09:43:50.040Z,100485.00
2022-12-31T09:46:54.679Z,100500.00
2022-12-31T09:49:46.077Z,100503.00
2022-12-31T09:52:50.641Z,100502.00
2022-12-31T09:55:44.781Z,100495.00
2022-12-31T09:58:26.536Z,100500.00
2022-12-31T10:01:01.577Z,100507.00
2022-12-31T10:03:40.820Z,100513.00
2022-12-31T10:06:22.895Z,100517.00
2022-12-31T10:08:56.811Z,100523.00
2022-12-31T10:11:58.389Z,100532.00
2022-12-31T10:14:50.049Z,100526.00
2022-12-31T10:17:30.395Z,100526.00
2022-12-31T10:20:15.737Z,100531.00
2022-12-31T10:22:54.283Z,100545.00
2022-12-31T10:25:38.639Z,100542.00
2022-12-31T10:28:15.682Z,100533.00
2022-12-31T10:30:52.930Z,100523.00
2022-12-31T10:33:59.827Z,100533.00
2022-12-31T10:36:31.041Z,100527.00
2022-12-31T10:39:14.464Z,100524.00
2022-12-31T10:42:00.547Z,100524.00
2022-12-31T10:45:18.265Z,100528.00
2022-12-31T10:48:03.408Z,100531.00
2022-12-31T10:50:49.137Z,100527.00
2022-12-31T10:53:46.913Z,100536.00
2022-12-31T10:56:31.806Z,100523.00
2022-12-31T10:59:13.269Z,100520.00
2022-12-31T11:01:56.805Z,100538.00
2022-12-31T11:04:42.208Z,100532.00
2022-12-31T11:07:17.916Z,100534.00
2022-12-31T11:09:59.653Z,100534.00
2022-12-31T11:13:02.454Z,100532.00
2022-12-31T11:15:49.960Z,100526.00
2022-12-31T11:18:19.832Z,100524.00
2022-12-31T11:21:24.503Z,100521.00
2022-12-31T11:24:05.337Z,100512.00
2022-12-31T11:26:40.894Z,100525.00
2022-12-31T11:29:19.559Z,100524.00
2022-12-31T11:32:01.086Z,100513.00
2022-12-31T11:34:56.498Z,100520.00
2022-12-31T11:38:06.562Z,100521.00
2022-12-31T11:40:56.077Z,100533.00
2022-12-31T11:44:10.186Z,100546.00
2022-12-31T11:47:05.651Z,100522.00
2022-12-31T11:49:32.229Z,100532.00
2022-12-31T11:52:21.407Z,100541.00
2022-12-31T11:55:22.322Z,100523.00
2022-12-31T11:57:53.437Z,100529.00
2022-12-31T12:00:20.832Z,100534.00
2022-12-31T12:02:54.019Z,100529.00
2022-12-31T12:05:23.362Z,100508.00
2022-12-31T12:07:51.099Z,100505.00
2022-12-31T12:10:35.951Z,100502.00
2022-12-31T12:13:28.484Z,100505.00
2022-12-31T12:15:58.851Z,100500.00
2022-12-31T12:18:28.330Z,100500.00
2022-12-31T12:21:05.210Z,100507.00
2022-12-31T12:23:32.941Z,100519.00
2022-12-31T12:26:00.038Z,100517.00
2022-12-31T12:28:30.017Z,100530.00
2022-12-31T12:31:02.776Z,100543.00
2022-12-31T12:33:41.165Z,100547.00
2022-12-31T12:36:12.776Z,100537.00
2022-12-31T12:38:40.500Z,100550.00
2022-12-31T12:41:26.505Z,100550.00
2022-12-31T12:44:15.138Z,100524.00
2022-12-31T12:46:48.595Z,100537.00
2022-12-31T12:49:23.301Z,100526.00
2022-12-31T12:52:26.464Z,100530.00
2022-12-31T12:55:18.375Z,100529.00
2022-12-31T12:58:02.182Z,100540.00
2022-12-31T13:01:01.222Z,100532.00
2022-12-31T13:04:23.716Z,100525.00
2022-12-31T13:06:57.918Z,100529.00
2022-12-31T13:10:07.690Z,100517.00
2022-12-31T13:13:23.498Z,100528.00
2022-12-31T13:15:56.704Z,100528.00
2022-12-31T13:18:50.449Z,100515.00
2022-12-31T13:21:42.691Z,100526.00
2022-12-31T13:24:29.420Z,100515.00
2022-12-31T13:27:18.195Z,100506.00
2022-12-31T13:29:47.348Z,100507.00
2022-12-31T13:32:32.602Z,100516.00
2022-12-31T13:35:12.709Z,100505.00
2022-12-31T13:37:42.099Z,100510.00
2022-12-31T13:40:25.619Z,100510.00
2022-12-31T13:42:58.325Z,100508.00
2022-12-31T13:45:30.705Z,100513.00
2022-12-31T13:48:05.702Z,100508.00
2022-12-31T13:50:48.150Z,100504.00
2022-12-31T13:53:22.703Z,100502.00
2022-12-31T13:55:57.917Z,100519.00
2022-12-31T13:58:49.766Z,100520.00
2022-12-31T14:01:22.399Z,100501.00
2022-12-31T14:04:10.282Z,100506.00
2022-12-31T14:06:57.908Z,100515.00
2022-12-31T14:09:27.821Z,100521.00
2022-12-31T14:12:48.176Z,100524.00
2022-12-31T14:15:29.389Z,100497.00
2022-12-31T14:18:04.179Z,100486.00
2022-12-31T14:20:57.228Z,100487.00
2022-12-31T14:23:46.631Z,100481.00
2022-12-31T14:26:27.523Z,100486.00
2022-12-31T14:29:12.340Z,100482.00
2022-12-31T14:31:44.585Z,100482.00
2022-12-31T14:34:40.945Z,100492.00
2022-12-31T14:37:44.887Z,100493.00
2022-12-31T14:40:55.826Z,100488.00
2022-12-31T14:43:39.902Z,100486.00
2022-12-31T14:46:20.307Z,100477.00
2022-12-31T14:49:27.252Z,100471.00
2022-12-31T14:51:53.917Z,100476.00
2022-12-31T14:54:36.488Z,100482.00
2022-12-31T14:57:10.799Z,100482.00
2022-12-31T14:59:40.742Z,100478.00
2022-12-31T15:02:28.249Z,100475.00
2022-12-31T15:05:31.903Z,100471.00
2022-12-31T15:08:13.363Z,100469.00
2022-12-31T15:11:01.733Z,100466.00
2022-12-31T15:13:56.399Z,100467.00
2022-12-31T15:16:40.886Z,100473.00
2022-12-31T15:19:19.550Z,100456.00
2022-12-31T15:21:58.011Z,100463.00
2022-12-31T15:24:25.546Z,100464.00
2022-12-31T15:26:58.288Z,100463.00
2022-12-31T15:29:34.018Z,100454.00
2022-12-31T15:32:04.132Z,100457.00
2022-12-31T15:34:37.271Z,100459.00
2022-12-31T15:37:06.945Z,100459.00
2022-12-31T15:39:40.466Z,100455.00
2022-12-31T15:42:52.894Z,100444.00
2022-12-31T15:45:32.779Z,100446.00
2022-12-31T15:48:03.175Z,100455.00
2022-12-31T15:50:30.960Z,100440.00
2022-12-31T15:53:03.856Z,100436.00
2022-12-31T15:55:37.726Z,100426.00
2022-12-31T15:58:10.528Z,100444.00
2022-12-31T16:00:42.995Z,100437.00
2022-12-31T16:03:27.858Z,100437.00
2022-12-31T16:06:03.716Z,100444.00
2022-12-31T16:08:33.628Z,100434.00
2022-12-31T16:11:00.741Z,100419.00
2022-12-31T16:13:29.612Z,100422.00
2022-12-31T16:16:15.597Z,100411.00
2022-12-31T16:18:43.706Z,100408.00
2022-12-31T16:21:27.593Z,100415.00
2022-12-31T16:23:56.961Z,100409.00
2022-12-31T16:26:29.446Z,100400.00
2022-12-31T16:29:00.446Z,100406.00
2022-12-31T16:31:29.029Z,100385.00
2022-12-31T16:34:13.693Z,100389.00
2022-12-31T16:36:40.458Z,100403.00
2022-12-31T16:39:29.049Z,100405.00
2022-12-31T16:42:26.558Z,100406.00
2022-12-31T16:44:55.504Z,100412.00
2022-12-31T16:47:32.827Z,100416.00
2022-12-31T16:50:14.519Z,100406.00
2022-12-31T16:52:43.631Z,100398.00
2022-12-31T16:55:16.537Z,100411.00
2022-12-31T16:57:46.450Z,100403.00
2022-12-31T17:00:18.400Z,100411.00
2022-12-31T17:02:59.094Z,100413.00
2022-12-31T17:05:28.098Z,100403.00
2022-12-31T17:07:55.419Z,100401.00
2022-12-31T17:10:25.317Z,100409.00
2022-12-31T17:15:45.163Z,100399.00
2022-12-31T17:18:24.887Z,100403.00
2022-12-31T17:20:53.443Z,100403.00
2022-12-31T17:23:25.675Z,100416.00
2022-12-31T17:26:11.915Z,100406.00
2022-12-31T17:28:43.881Z,100410.00
2022-12-31T17:31:38.315Z,100418.00
2022-12-31T17:34:32.349Z,100406.00
2022-12-31T17:37:10.566Z,100413.00
2022-12-31T17:39:47.099Z,100418.00
2022-12-31T17:42:22.315Z,100417.00
2022-12-31T17:44:49.241Z,100419.00
2022-12-31T17:47:16.073Z,100417.00
2022-12-31T17:49:45.769Z,100422.00
2022-12-31T17:52:14.392Z,100428.00
2022-12-31T17:54:41.420Z,100435.00
2022-12-31T17:57:26.887Z,100438.00
2022-12-31T17:59:53.996Z,100438.00
2022-12-31T18:02:20.839Z,100445.00
2022-12-31T18:04:47.577Z,100453.00
2022-12-31T18:07:14.244Z,100459.00
2022-12-31T18:09:40.923Z,100457.00
2022-12-31T18:12:08.007Z,100455.00
2022-12-31T18:14:34.700Z,100465.00
2022-12-31T18:17:01.531Z,100468.00
2022-12-31T18:20:03.032Z,100480.00
2022-12-31T18:22:16.305Z,100479.00
2022-12-31T18:24:44.113Z,100472.00
2022-12-31T18:27:18.214Z,100474.00
2022-12-31T18:29:45.475Z,100488.00
2022-12-31T18:32:27.141Z,100484.00
2022-12-31T18:34:54.573Z,100479.00
2022-12-31T18:37:22.404Z,100488.00
2022-12-31T18:39:49.156Z,100485.00
2022-12-31T18:42:18.363Z,100492.00
2022-12-31T18:44:45.050Z,100505.00
2022-12-31T18:47:17.011Z,100502.00
2022-12-31T18:49:45.004Z,100504.00
2022-12-31T18:52:14.270Z,100498.00
2022-12-31T18:54:41.050Z,100501.00
2022-12-31T18:57:09.145Z,100505.00
2022-12-31T18:59:35.753Z,100503.00
2022-12-31T19:02:02.720Z,100508.00
2022-12-31T19:04:29.754Z,100503.00
2022-12-31T19:06:56.718Z,100493.00
2022-12-31T19:12:13.359Z,100505.00
2022-12-31T19:14:40.079Z,100511.00
2022-12-31T19:19:32.149Z,100513.00
2022-12-31T19:21:58.780Z,100514.00
2022-12-31T19:24:27.284Z,100513.00
2022-12-31T19:26:54.908Z,100519.00
2022-12-31T19:29:24.329Z,100510.00
2022-12-31T19:31:51.704Z,100514.00
2022-12-31T19:34:18.607Z,100528.00
2022-12-31T19:36:45.351Z,100522.00
2022-12-31T19:39:17.870Z,100523.00
2022-12-31T19:41:45.948Z,100526.00
2022-12-31T19:44:21.614Z,100525.00
2022-12-31T19:46:49.362Z,100526.00
2022-12-31T19:49:16.037Z,100529.00
2022-12-31T19:51:42.710Z,100532.00
2022-12-31T19:54:12.602Z,100540.00
2022-12-31T19:56:39.361Z,100545.00
2022-12-31T19:59:07.236Z,100539.00
2022-12-31T20:01:34.256Z,100532.00
2022-12-31T20:04:01.038Z,100535.00
2022-12-31T20:06:27.744Z,100534.00
2022-12-31T20:08:54.438Z,100546.00
2022-12-31T20:11:22.779Z,100541.00
2022-12-31T20:13:50.426Z,100550.00
2022-12-31T20:16:19.191Z,100547.00
2022-12-31T20:18:47.521Z,100556.00
2022-12-31T20:21:24.201Z,100557.00
2022-12-31T20:23:52.693Z,100555.00
2022-12-31T20:26:20.429Z,100567.00
2022-12-31T20:28:47.202Z,100568.00
2022-12-31T20:31:16.854Z,100581.00
2022-12-31T20:33:44.178Z,100574.00
2022-12-31T20:36:13.795Z,100572.00
2022-12-31T20:38:40.474Z,100588.00
2022-12-31T20:41:16.024Z,100567.00
2022-12-31T20:43:43.433Z,100592.00
2022-12-31T20:46:18.974Z,100587.00
2022-12-31T20:48:47.290Z,100579.00
2022-12-31T20:51:15.217Z,100587.00
2022-12-31T20:53:49.824Z,100595.00
2022-12-31T20:56:17.556Z,100594.00
2022-12-31T20:58:44.677Z,100595.00
2022-12-31T21:01:11.845Z,100603.00
2022-12-31T21:06:28.622Z,100596.00
2022-12-31T21:09:01.421Z,100598.00
2022-12-31T21:11:47.029Z,100593.00
2022-12-31T21:14:13.714Z,100594.00
2022-12-31T21:16:40.357Z,100586.00
2022-12-31T21:19:06.994Z,100591.00
2022-12-31T21:21:33.973Z,100592.00
2022-12-31T21:24:00.628Z,100615.00
2022-12-31T21:26:27.874Z,100612.00
2022-12-31T21:28:54.559Z,100608.00
2022-12-31T21:31:21.268Z,100601.00
2022-12-31T21:33:48.642Z,100616.00
2022-12-31T21:36:16.154Z,100612.00
2022-12-31T21:38:43.894Z,100627.00
2022-12-31T21:41:33.488Z,100629.00
2022-12-31T21:44:01.499Z,100642.00
2022-12-31T21:46:28.465Z,100634.00
2022-12-31T21:48:59.780Z,100654.00
2022-12-31T21:51:27.424Z,100654.00
2022-12-31T21:53:54.244Z,100646.00
2022-12-31T21:56:21.606Z,100647.00
2022-12-31T21:59:13.754Z,100646.00
2022-12-31T22:01:59.215Z,100654.00
2022-12-31T22:07:12.850Z,100664.00
2022-12-31T22:09:39.544Z,100654.00
2022-12-31T22:12:06.414Z,100659.00
2022-12-31T22:14:33.060Z,100655.00
2022-12-31T22:16:59.679Z,100661.00
2022-12-31T22:19:26.432Z,100666.00
2022-12-31T22:21:53.005Z,100669.00
2022-12-31T22:24:19.621Z,100662.00
2022-12-31T22:26:46.965Z,100663.00
2022-12-31T22:29:13.845Z,100668.00
2022-12-31T22:31:40.642Z,100661.00
2022-12-31T22:34:07.511Z,100668.00
2022-12-31T22:36:34.374Z,100670.00
2022-12-31T22:39:00.992Z,100685.00
2022-12-31T22:41:28.404Z,100682.00
2022-12-31T22:44:03.157Z,100683.00
2022-12-31T22:46:31.597Z,100674.00
2022-12-31T22:48:59.863Z,100671.00
2022-12-31T22:51:57.198Z,100684.00
2022-12-31T22:54:15.091Z,100687.00
2022-12-31T22:56:41.835Z,100678.00
2022-12-31T22:59:09.204Z,100683.00
2022-12-31T23:01:35.878Z,100684.00
2022-12-31T23:04:02.637Z,100694.00
2022-12-31T23:06:29.498Z,100696.00
2022-12-31T23:09:25.363Z,100705.00
2022-12-31T23:11:52.019Z,100694.00
2022-12-31T23:14:36.986Z,100699.00
2022-12-31T23:17:30.880Z,100701.00
2022-12-31T23:20:20.546Z,100697.00
2022-12-31T23:23:06.635Z,100702.00
2022-12-31T23:25:59.725Z,100706.00
2022-12-31T23:28:26.467Z,100705.00
2022-12-31T23:30:53.751Z,100694.00
2022-12-31T23:33:23.141Z,100697.00
2022-12-31T23:35:49.952Z,100708.00
2022-12-31T23:38:17.915Z,100710.00
2022-12-31T23:40:45.138Z,100704.00
2022-12-31T23:43:22.296Z,100711.00
2022-12-31T23:45:51.053Z,100711.00
2022-12-31T23:48:17.785Z,100706.00
2022-12-31T23:50:49.217Z,100714.00
2022-12-31T23:53:19.193Z,100726.00
2022-12-31T23:55:45.822Z,100711.00
2022-12-31T23:58:12.446Z,100711.00
